Time;durP1;ratioP1;P1;durP2;ratioP2;P2;SDS_P1;SDS_P2;PMS_P1;PMS_P2;Temp;Humidity;BMP_temperature;BMP_pressure;BME280_temperature;BME280_humidity;BME280_pressure;Samples;Min_cycle;Max_cycle;Signal;HPM_P1;HPM_P2
2023/06/24 00:00:56;;;;;;;6.75;5.82;;;;;;;22.23;64.54;102406.34;5029496;28;20423;-57
2023/06/24 00:03:22;;;;;;;7.20;5.55;;;;;;;22.23;64.66;102401.78;5022591;28;20025;-57
2023/06/24 00:05:49;;;;;;;8.85;6.28;;;;;;;22.21;64.92;102395.63;5025674;28;20125;-57
2023/06/24 00:08:18;;;;;;;6.82;5.80;;;;;;;22.21;64.84;102398.34;5027114;28;20034;-57
2023/06/24 00:10:46;;;;;;;8.02;5.90;;;;;;;22.21;64.97;102397.50;5025838;28;20057;-57
2023/06/24 00:13:14;;;;;;;7.88;5.97;;;;;;;22.20;64.80;102399.34;5022063;28;20050;-57
2023/06/24 00:15:43;;;;;;;6.15;5.55;;;;;;;22.20;64.21;102403.91;5024770;28;20033;-57
2023/06/24 00:18:11;;;;;;;8.90;6.20;;;;;;;22.18;64.55;102401.34;5026498;28;20036;-57
2023/06/24 00:20:37;;;;;;;8.82;5.72;;;;;;;22.18;64.14;102395.94;5025018;28;20487;-57
2023/06/24 00:23:03;;;;;;;7.93;5.78;;;;;;;22.17;64.34;102409.63;5021902;28;20037;-57
2023/06/24 00:25:29;;;;;;;7.75;6.95;;;;;;;22.15;64.45;102407.03;5022500;28;20044;-57
2023/06/24 00:27:55;;;;;;;10.43;6.78;;;;;;;22.16;64.51;102403.34;5026698;28;20025;-57
2023/06/24 00:30:20;;;;;;;10.48;6.40;;;;;;;22.17;64.34;102399.63;5020138;28;20029;-57
2023/06/24 00:32:45;;;;;;;9.27;6.95;;;;;;;22.14;63.83;102416.19;5022227;28;20040;-57
2023/06/24 00:35:13;;;;;;;7.60;6.53;;;;;;;22.15;64.47;102406.19;5022009;28;20388;-57
2023/06/24 00:37:38;;;;;;;8.10;6.38;;;;;;;22.13;63.97;102414.44;5023396;28;20034;-57
2023/06/24 00:40:05;;;;;;;6.82;6.13;;;;;;;22.14;63.87;102409.88;5021074;28;20099;-57
2023/06/24 00:42:31;;;;;;;9.18;6.60;;;;;;;22.11;63.81;102424.59;5024680;28;20049;-57
2023/06/24 00:44:56;;;;;;;7.68;6.43;;;;;;;22.12;63.72;102420.84;5020776;28;20036;-57
2023/06/24 00:47:22;;;;;;;8.95;6.38;;;;;;;22.12;64.20;102403.72;5017913;28;20026;-58
2023/06/24 00:49:48;;;;;;;9.75;5.97;;;;;;;22.11;64.16;102419.16;5019338;28;20403;-58
2023/06/24 00:52:16;;;;;;;9.75;6.13;;;;;;;22.12;63.71;102418.16;5022299;28;20172;-58
2023/06/24 00:54:44;;;;;;;10.07;6.18;;;;;;;22.11;63.67;102421.88;5023925;28;20040;-57
2023/06/24 00:57:10;;;;;;;8.45;6.03;;;;;;;22.10;64.15;102420.13;5020731;28;20572;-57
2023/06/24 00:59:37;;;;;;;10.20;6.28;;;;;;;22.10;64.07;102422.00;5021940;28;20116;-57
2023/06/24 01:02:04;;;;;;;8.10;6.10;;;;;;;22.06;63.52;102419.53;5024365;28;20024;-57
2023/06/24 01:04:30;;;;;;;9.48;6.53;;;;;;;22.08;63.52;102414.00;5021652;28;20044;-57
2023/06/24 01:06:57;;;;;;;7.13;6.32;;;;;;;22.08;63.77;102405.84;5017459;28;20036;-57
2023/06/24 01:09:23;;;;;;;9.10;6.10;;;;;;;22.07;63.29;102415.00;5025323;28;20044;-57
2023/06/24 01:11:48;;;;;;;8.90;6.00;;;;;;;22.05;63.38;102403.44;5022546;28;20053;-57
2023/06/24 01:14:14;;;;;;;8.85;6.65;;;;;;;22.05;63.23;102406.16;5023094;28;20460;-57
2023/06/24 01:16:45;;;;;;;9.68;6.13;;;;;;;22.03;63.64;102402.72;5022945;28;20034;-57
2023/06/24 01:19:16;;;;;;;;;;;;;;;22.13;63.41;102397.31;5021713;28;20092;-57
2023/06/24 01:22:20;;;;;;;9.45;6.50;;;;;;;22.08;63.23;102395.00;5021417;28;20291;-57
2023/06/24 01:25:19;;;;;;;7.57;6.03;;;;;;;22.05;63.13;102392.59;5021765;28;20030;-58
2023/06/24 01:28:15;;;;;;;7.78;6.00;;;;;;;22.04;62.92;102393.56;5022352;28;20108;-58
2023/06/24 01:31:10;;;;;;;10.88;6.72;;;;;;;22.02;63.26;102390.13;5021878;28;20038;-58
2023/06/24 01:33:50;;;;;;;12.05;6.90;;;;;;;22.01;63.17;102388.44;5021315;28;20026;-58
2023/06/24 01:36:18;;;;;;;8.15;5.97;;;;;;;21.98;62.67;102394.97;5019681;28;20026;-58
2023/06/24 01:38:51;;;;;;;7.72;6.10;;;;;;;21.98;62.83;102388.69;5021407;28;20387;-58
2023/06/24 01:41:24;;;;;;;8.85;5.95;;;;;;;21.97;63.08;102386.94;5022264;28;20102;-58
2023/06/24 01:43:52;;;;;;;7.05;5.95;;;;;;;21.97;62.92;102389.66;5017808;28;20499;-58
2023/06/24 01:46:21;;;;;;;6.60;5.45;;;;;;;21.96;62.24;102396.09;5020872;28;20060;-58
2023/06/24 01:48:51;;;;;;;7.53;5.72;;;;;;;21.96;62.25;102387.97;5019683;28;20507;-58
2023/06/24 01:51:19;;;;;;;7.68;6.20;;;;;;;21.95;62.62;102383.53;5021076;28;20056;-58
2023/06/24 01:53:49;;;;;;;8.60;5.93;;;;;;;21.93;62.64;102382.78;5021882;28;20036;-58
2023/06/24 01:56:16;;;;;;;9.93;6.40;;;;;;;21.94;62.40;102387.25;5021824;28;20135;-58
2023/06/24 01:58:43;;;;;;;8.60;6.18;;;;;;;21.91;62.58;102384.78;5020636;28;20461;-58
2023/06/24 02:01:09;;;;;;;8.32;6.30;;;;;;;21.91;62.25;102388.34;5020856;28;20038;-58
2023/06/24 02:03:36;;;;;;;7.75;6.30;;;;;;;21.90;62.09;102380.38;5021173;28;20040;-58
2023/06/24 02:06:02;;;;;;;9.93;5.68;;;;;;;21.89;62.52;102378.63;5016753;28;20095;-58
2023/06/24 02:08:34;;;;;;;9.30;7.05;;;;;;;21.89;62.49;102378.63;5021603;28;20053;-58
2023/06/24 02:11:01;;;;;;;8.13;6.00;;;;;;;21.87;62.21;102381.47;5018606;28;20078;-58
2023/06/24 02:13:28;;;;;;;9.65;6.35;;;;;;;21.86;61.75;102375.22;5021293;28;20468;-58
2023/06/24 02:15:55;;;;;;;9.30;6.03;;;;;;;21.84;61.71;102374.50;5021733;28;20526;-58
2023/06/24 02:18:23;;;;;;;10.27;6.15;;;;;;;21.84;62.21;102379.91;5021133;28;20112;-58
2023/06/24 02:20:50;;;;;;;8.57;6.22;;;;;;;21.83;62.01;102375.47;5025520;28;20033;-58
2023/06/24 02:23:16;;;;;;;7.70;5.75;;;;;;;21.82;62.07;102379.19;5020708;28;20392;-58
2023/06/24 02:25:42;;;;;;;10.45;6.57;;;;;;;21.82;61.71;102389.19;5017373;28;20038;-58
2023/06/24 02:28:09;;;;;;;6.65;5.63;;;;;;;21.80;61.76;102381.19;5020666;28;20120;-58
2023/06/24 02:30:36;;;;;;;5.57;5.05;;;;;;;21.80;61.68;102386.59;5019380;28;20080;-58
2023/06/24 02:33:01;;;;;;;8.05;5.72;;;;;;;21.80;61.49;102381.19;5023887;28;20985;-58
2023/06/24 02:35:27;;;;;;;8.30;6.47;;;;;;;21.79;61.42;102379.44;5017849;28;20032;-58
2023/06/24 02:37:52;;;;;;;9.57;6.32;;;;;;;21.80;61.88;102372.16;5019776;28;20025;-58
2023/06/24 02:40:18;;;;;;;6.40;5.65;;;;;;;21.79;61.49;102378.59;5019284;28;20047;-58
2023/06/24 02:42:43;;;;;;;6.68;5.68;;;;;;;21.77;61.46;102381.44;5017912;28;20033;-58
2023/06/24 02:45:09;;;;;;;9.50;6.00;;;;;;;21.78;61.16;102379.56;5020644;28;20061;-58
2023/06/24 02:47:36;;;;;;;7.60;5.47;;;;;;;21.74;61.10;102381.72;5020855;28;20518;-58
2023/06/24 02:50:05;;;;;;;7.40;5.28;;;;;;;21.74;61.20;102379.00;5020028;28;20029;-58
2023/06/24 02:52:30;;;;;;;7.00;5.18;;;;;;;21.73;61.63;102377.28;5019950;28;20038;-58
2023/06/24 02:54:59;;;;;;;8.57;5.90;;;;;;;21.73;61.03;102373.72;5020244;28;20014;-58
2023/06/24 02:57:25;;;;;;;8.10;5.20;;;;;;;21.72;61.10;102374.69;5021003;28;20043;-58
2023/06/24 02:59:51;;;;;;;6.20;4.78;;;;;;;21.71;60.92;102381.97;5020731;28;20042;-58
2023/06/24 03:02:17;;;;;;;9.48;5.35;;;;;;;21.70;61.40;102382.97;5025803;28;20036;-58
2023/06/24 03:04:42;;;;;;;8.57;5.25;;;;;;;21.70;60.91;102388.38;5019973;28;20065;-58
2023/06/24 03:07:10;;;;;;;8.50;5.70;;;;;;;21.70;61.17;102384.81;5018482;28;20034;-58
2023/06/24 03:09:35;;;;;;;9.80;4.75;;;;;;;21.68;61.02;102387.66;5022274;28;20512;-58
2023/06/24 03:12:01;;;;;;;6.93;5.25;;;;;;;21.69;61.23;102391.25;5016789;28;20116;-58
2023/06/24 03:14:26;;;;;;;7.47;5.28;;;;;;;21.67;60.94;102397.66;5020212;28;20037;-58
2023/06/24 03:16:52;;;;;;;6.22;4.78;;;;;;;21.67;60.90;102397.66;5024862;28;20068;-58
2023/06/24 03:19:17;;;;;;;9.40;5.47;;;;;;;21.66;60.92;102390.50;5020133;28;20049;-58
2023/06/24 03:21:43;;;;;;;7.65;5.40;;;;;;;21.65;60.34;102391.50;5014165;28;20567;-58
2023/06/24 03:24:08;;;;;;;7.60;5.60;;;;;;;21.64;60.42;102386.22;5020111;28;20033;-58
2023/06/24 03:26:38;;;;;;;7.28;4.97;;;;;;;21.63;60.28;102382.66;5019009;28;20034;-58
2023/06/24 03:29:04;;;;;;;5.22;4.60;;;;;;;21.64;60.60;102383.50;5017742;28;20184;-58
2023/06/24 03:31:30;;;;;;;8.68;5.28;;;;;;;21.63;60.51;102379.94;5019948;28;20168;-58
2023/06/24 03:33:55;;;;;;;6.43;5.35;;;;;;;21.62;60.21;102378.19;5019670;28;20033;-58
2023/06/24 03:36:21;;;;;;;7.13;5.20;;;;;;;21.59;60.35;102378.50;5016946;28;20038;-58
2023/06/24 03:38:46;;;;;;;9.63;5.45;;;;;;;21.60;60.55;102376.63;5017201;28;20034;-58
2023/06/24 03:41:11;;;;;;;6.45;4.85;;;;;;;21.58;60.43;102376.75;5020433;28;20091;-58
2023/06/24 03:43:37;;;;;;;9.18;5.53;;;;;;;21.57;60.27;102380.47;5020553;28;20037;-58
2023/06/24 03:46:02;;;;;;;8.65;4.90;;;;;;;21.57;60.01;102390.44;5019059;28;20053;-58
2023/06/24 03:48:28;;;;;;;6.30;5.38;;;;;;;21.57;59.91;102379.59;5015991;28;20038;-58
2023/06/24 03:50:53;;;;;;;8.52;5.18;;;;;;;21.56;59.97;102388.72;5020362;28;20583;-58
2023/06/24 03:53:19;;;;;;;7.95;4.97;;;;;;;21.54;59.67;102391.56;5017493;28;20434;-58
2023/06/24 03:55:44;;;;;;;8.25;5.13;;;;;;;21.55;59.61;102397.84;5020847;28;20041;-58
2023/06/24 03:58:10;;;;;;;10.10;4.82;;;;;;;21.53;60.23;102389.84;5028659;28;20064;-58
2023/06/24 04:00:40;;;;;;;6.47;4.50;;;;;;;21.54;60.37;102404.28;5023069;28;20038;-58
2023/06/24 04:03:07;;;;;;;6.72;4.65;;;;;;;21.53;60.11;102399.81;5023692;28;20057;-58
2023/06/24 04:05:33;;;;;;;11.18;4.75;;;;;;;21.53;59.75;102395.25;5020854;28;20045;-58
2023/06/24 04:07:58;;;;;;;8.90;4.85;;;;;;;21.52;60.16;102395.41;5027789;28;20037;-58
2023/06/24 04:10:24;;;;;;;5.78;4.50;;;;;;;21.50;59.60;102403.66;5022068;28;20057;-58
2023/06/24 04:12:50;;;;;;;7.03;4.60;;;;;;;21.49;59.73;102399.22;5027996;28;20438;-58
2023/06/24 04:15:15;;;;;;;7.13;5.07;;;;;;;21.52;59.46;102392.69;5024267;28;20053;-58
2023/06/24 04:17:40;;;;;;;6.53;4.90;;;;;;;21.52;60.11;102395.41;5022091;28;20486;-58
2023/06/24 04:20:09;;;;;;;5.78;5.00;;;;;;;21.50;60.17;102398.25;5021705;28;20041;-58
2023/06/24 04:22:39;;;;;;;5.38;4.60;;;;;;;21.48;59.74;102392.97;5023049;28;20072;-58
2023/06/24 04:25:05;;;;;;;7.90;4.85;;;;;;;21.48;59.77;102398.38;5023849;28;20072;-58
2023/06/24 04:27:33;;;;;;;5.13;4.63;;;;;;;21.47;60.28;102402.06;5023273;28;20453;-58
2023/06/24 04:29:58;;;;;;;8.60;5.20;;;;;;;21.48;59.69;102401.09;5022562;28;20060;-58
2023/06/24 04:32:24;;;;;;;6.75;4.82;;;;;;;21.47;60.28;102396.63;5018879;28;20034;-58
2023/06/24 04:34:49;;;;;;;7.57;5.10;;;;;;;21.46;60.38;102394.09;5019682;28;20034;-57
2023/06/24 04:37:15;;;;;;;6.40;4.53;;;;;;;21.46;59.91;102399.50;5024660;28;20500;-58
2023/06/24 04:39:41;;;;;;;6.32;4.40;;;;;;;21.45;59.97;102400.47;5023216;28;20462;-58
2023/06/24 04:42:06;;;;;;;5.53;4.63;;;;;;;21.44;60.20;102396.94;5021843;28;20033;-58
2023/06/24 04:44:32;;;;;;;6.07;4.57;;;;;;;21.46;60.42;102399.50;5022445;28;20392;-58
2023/06/24 04:46:57;;;;;;;7.90;4.90;;;;;;;21.44;59.95;102407.75;5019485;28;20022;-58
2023/06/24 04:49:22;;;;;;;7.10;3.78;;;;;;;21.45;60.40;102404.03;5022307;28;20030;-58
2023/06/24 04:51:48;;;;;;;7.25;4.57;;;;;;;21.46;60.64;102402.22;5023169;28;20088;-58
2023/06/24 04:54:13;;;;;;;13.20;5.20;;;;;;;21.45;60.67;102412.19;5024443;28;20427;-58
2023/06/24 04:56:39;;;;;;;8.07;5.75;;;;;;;21.46;60.30;102410.34;5021497;28;20123;-58
2023/06/24 04:59:05;;;;;;;8.68;5.68;;;;;;;21.46;60.36;102410.34;5022584;28;20048;-58
2023/06/24 05:01:30;;;;;;;7.10;5.32;;;;;;;21.46;60.38;102404.94;5023497;28;20382;-58
2023/06/24 05:03:55;;;;;;;7.28;5.95;;;;;;;21.45;60.17;102404.03;5021633;28;20036;-58
2023/06/24 05:06:21;;;;;;;6.57;5.75;;;;;;;21.44;60.23;102405.06;5017993;28;20087;-58
2023/06/24 05:08:46;;;;;;;6.88;5.68;;;;;;;21.46;59.92;102402.22;5025415;28;20034;-58
2023/06/24 05:11:11;;;;;;;8.50;5.43;;;;;;;21.46;60.41;102400.34;5022951;28;20062;-58
2023/06/24 05:13:37;;;;;;;6.82;5.38;;;;;;;21.46;60.17;102399.50;5020070;28;20064;-58
2023/06/24 05:16:03;;;;;;;8.52;5.88;;;;;;;21.46;60.26;102402.22;5024218;28;20095;-58
2023/06/24 05:18:28;;;;;;;7.47;5.95;;;;;;;21.47;60.00;102402.06;5025166;28;20113;-58
2023/06/24 05:20:53;;;;;;;7.30;5.88;;;;;;;21.48;60.28;102403.78;5017943;28;20041;-59
2023/06/24 05:23:19;;;;;;;10.50;6.25;;;;;;;21.50;60.02;102405.53;5020038;28;20120;-58
2023/06/24 05:25:44;;;;;;;11.77;6.25;;;;;;;21.51;60.42;102402.66;5020116;28;20096;-58
2023/06/24 05:28:09;;;;;;;8.48;6.85;;;;;;;21.52;59.91;102403.53;5018207;28;20112;-59
2023/06/24 05:30:35;;;;;;;11.48;6.35;;;;;;;21.51;59.80;102391.81;5021373;28;20033;-59
2023/06/24 05:33:00;;;;;;;8.35;6.00;;;;;;;21.53;59.85;102410.66;5017974;28;20037;-58
2023/06/24 05:35:26;;;;;;;7.38;6.40;;;;;;;21.53;60.30;102399.81;5021826;28;20461;-58
2023/06/24 05:37:51;;;;;;;8.65;6.10;;;;;;;21.53;60.21;102407.97;5022325;28;20045;-59
2023/06/24 05:40:16;;;;;;;11.43;6.57;;;;;;;21.54;60.39;102409.69;5022016;28;20522;-59
2023/06/24 05:42:42;;;;;;;7.85;5.70;;;;;;;21.54;59.91;102413.25;5020713;28;20043;-58
2023/06/24 05:45:07;;;;;;;9.05;5.95;;;;;;;21.55;59.90;102411.41;5021025;28;20033;-59
2023/06/24 05:47:33;;;;;;;11.40;6.35;;;;;;;21.55;60.30;102408.69;5019327;28;20030;-59
2023/06/24 05:49:58;;;;;;;8.82;6.40;;;;;;;21.57;60.25;102412.13;5021655;28;20037;-59
2023/06/24 05:52:24;;;;;;;9.68;6.53;;;;;;;21.56;60.21;102419.41;5025446;28;20124;-58
2023/06/24 05:54:50;;;;;;;8.85;6.38;;;;;;;21.57;59.76;102412.13;5021954;28;20025;-58
2023/06/24 05:57:15;;;;;;;9.68;7.03;;;;;;;21.58;59.77;102411.13;5020803;28;20094;-58
2023/06/24 05:59:41;;;;;;;11.25;6.88;;;;;;;21.56;59.73;102411.25;5018381;28;20161;-59
2023/06/24 06:02:06;;;;;;;10.18;7.13;;;;;;;21.58;60.14;102414.69;5019523;28;20044;-58
2023/06/24 06:04:32;;;;;;;9.48;6.32;;;;;;;21.59;59.86;102410.13;5015481;28;20499;-58
2023/06/24 06:06:57;;;;;;;9.60;6.97;;;;;;;21.59;60.14;102405.59;5021172;28;20043;-58
2023/06/24 06:09:22;;;;;;;9.10;7.07;;;;;;;21.58;60.17;102413.84;5020492;28;20045;-58
2023/06/24 06:11:48;;;;;;;11.18;6.68;;;;;;;21.58;59.74;102414.69;5021256;28;20438;-58
2023/06/24 06:14:14;;;;;;;11.32;7.75;;;;;;;21.58;59.62;102414.69;5019188;28;20032;-59
2023/06/24 06:16:39;;;;;;;10.52;6.82;;;;;;;21.59;59.89;102412.84;5020391;28;20045;-58
2023/06/24 06:19:05;;;;;;;10.70;7.15;;;;;;;21.59;59.80;102408.31;5019079;28;20415;-58
2023/06/24 06:21:30;;;;;;;13.18;8.55;;;;;;;21.59;59.87;102418.25;5020283;28;20053;-58
2023/06/24 06:23:55;;;;;;;9.48;7.63;;;;;;;21.60;60.17;102411.88;5020779;28;20046;-58
2023/06/24 06:26:21;;;;;;;10.25;8.00;;;;;;;21.59;59.73;102420.97;5015681;28;20448;-58
2023/06/24 06:28:49;;;;;;;10.27;7.70;;;;;;;21.59;60.02;102421.84;5021825;28;20036;-58
2023/06/24 06:31:15;;;;;;;12.13;7.70;;;;;;;21.58;59.84;102424.69;5020045;28;20099;-58
2023/06/24 06:33:41;;;;;;;9.48;7.22;;;;;;;21.58;59.36;102433.69;5019929;28;20468;-56
2023/06/24 06:36:06;;;;;;;12.18;7.88;;;;;;;21.59;59.20;102426.41;5020443;28;20060;-56
2023/06/24 06:38:33;;;;;;;8.98;6.80;;;;;;;21.58;59.83;102430.97;5021250;28;20112;-56
2023/06/24 06:40:59;;;;;;;10.48;7.18;;;;;;;21.60;59.93;102430.84;5019573;28;20025;-57
2023/06/24 06:43:24;;;;;;;7.47;5.95;;;;;;;21.62;59.89;102434.28;5019869;28;20032;-57
2023/06/24 06:45:50;;;;;;;7.20;5.90;;;;;;;21.61;59.92;102432.53;5019678;28;20448;-56
2023/06/24 06:48:15;;;;;;;7.78;6.03;;;;;;;21.62;59.95;102434.28;5017439;28;20406;-57
2023/06/24 06:50:40;;;;;;;7.82;5.65;;;;;;;21.63;59.41;102430.59;5019207;28;20029;-57
2023/06/24 06:53:06;;;;;;;6.38;5.22;;;;;;;21.64;59.79;102435.00;5020697;28;20037;-56
2023/06/24 06:55:31;;;;;;;7.45;4.60;;;;;;;21.64;59.73;102433.13;5019188;28;20486;-57
2023/06/24 06:57:56;;;;;;;10.02;4.95;;;;;;;21.66;59.29;102443.84;5017444;28;20400;-57
2023/06/24 07:00:22;;;;;;;7.53;5.20;;;;;;;21.66;59.19;102444.72;5018944;28;20472;-56
2023/06/24 07:02:47;;;;;;;6.15;4.25;;;;;;;21.66;59.14;102452.84;5024385;28;20484;-57
2023/06/24 07:05:13;;;;;;;6.05;4.40;;;;;;;21.68;59.56;102452.72;5019459;28;20052;-57
2023/06/24 07:07:38;;;;;;;6.22;5.22;;;;;;;21.67;59.25;102445.59;5020784;28;20037;-57
2023/06/24 07:10:04;;;;;;;5.57;3.75;;;;;;;21.69;59.52;102453.59;5018663;28;20046;-56
2023/06/24 07:12:30;;;;;;;5.40;4.25;;;;;;;21.68;59.31;102452.72;5019438;28;20030;-57
2023/06/24 07:14:56;;;;;;;5.45;4.35;;;;;;;21.69;58.83;102453.59;5019605;28;20472;-56
2023/06/24 07:17:21;;;;;;;4.70;3.80;;;;;;;21.69;58.89;102453.59;5019959;28;20041;-56
2023/06/24 07:19:47;;;;;;;5.43;4.18;;;;;;;21.71;58.66;102454.31;5018114;28;20559;-57
2023/06/24 07:22:13;;;;;;;3.92;3.50;;;;;;;21.71;58.66;102452.47;5015714;28;20080;-56
2023/06/24 07:24:38;;;;;;;4.40;4.00;;;;;;;21.71;58.69;102449.75;5017027;28;20034;-56
2023/06/24 07:27:04;;;;;;;4.85;3.45;;;;;;;21.72;58.70;102454.16;5017734;28;20475;-56
2023/06/24 07:29:29;;;;;;;4.68;3.70;;;;;;;21.73;58.57;102452.34;5018658;28;20407;-56
2023/06/24 07:31:55;;;;;;;3.35;3.05;;;;;;;21.72;58.83;102451.44;5022395;28;20041;-57
2023/06/24 07:34:20;;;;;;;4.15;3.72;;;;;;;21.74;58.51;102462.19;5026255;28;20030;-56
2023/06/24 07:36:45;;;;;;;5.13;3.58;;;;;;;21.73;58.43;102455.06;5024312;28;20064;-57
2023/06/24 07:39:11;;;;;;;4.50;3.33;;;;;;;21.73;58.40;102453.19;5023110;28;20025;-56
2023/06/24 07:41:36;;;;;;;2.92;2.65;;;;;;;21.75;58.71;102456.63;5024836;28;20439;-57
2023/06/24 07:44:02;;;;;;;5.03;3.13;;;;;;;21.75;58.37;102451.19;5024957;28;20040;-56
2023/06/24 07:46:27;;;;;;;4.18;3.47;;;;;;;21.75;58.27;102455.78;5024500;28;20025;-57
2023/06/24 07:48:53;;;;;;;3.65;3.15;;;;;;;21.76;58.74;102449.34;5023651;28;20555;-56
2023/06/24 07:51:18;;;;;;;3.40;3.08;;;;;;;21.77;58.68;102453.78;5024148;28;20043;-56
2023/06/24 07:53:44;;;;;;;3.92;3.20;;;;;;;21.76;58.63;102455.66;5024276;28;20480;-56
2023/06/24 07:56:09;;;;;;;5.45;3.45;;;;;;;21.77;58.18;102460.06;5023437;28;20037;-56
2023/06/24 07:58:36;;;;;;;5.32;3.10;;;;;;;21.78;58.54;102456.38;5025035;28;20038;-56
2023/06/24 08:01:02;;;;;;;3.33;2.88;;;;;;;21.78;58.66;102450.94;5022895;28;20498;-57
2023/06/24 08:03:28;;;;;;;3.70;3.22;;;;;;;21.79;58.20;102451.81;5024740;28;20030;-56
2023/06/24 08:05:53;;;;;;;3.58;3.20;;;;;;;21.79;58.56;102454.50;5022504;28;20113;-56
2023/06/24 08:08:20;;;;;;;4.50;3.85;;;;;;;21.78;58.18;102453.66;5024982;28;20041;-56
2023/06/24 08:10:45;;;;;;;3.55;3.25;;;;;;;21.79;58.40;102449.94;5022537;28;20053;-56
2023/06/24 08:13:11;;;;;;;4.22;2.97;;;;;;;21.79;58.46;102444.53;5023019;28;20048;-56
2023/06/24 08:15:36;;;;;;;3.92;3.30;;;;;;;21.79;58.32;102444.53;5023452;28;20472;-56
2023/06/24 08:18:02;;;;;;;4.53;3.47;;;;;;;21.80;57.85;102448.97;5023552;28;20050;-56
2023/06/24 08:20:27;;;;;;;3.58;3.05;;;;;;;21.81;58.23;102452.53;5022363;28;20037;-57
2023/06/24 08:22:52;;;;;;;3.10;2.78;;;;;;;21.81;57.79;102447.94;5025105;28;20041;-56
2023/06/24 08:25:18;;;;;;;4.03;3.10;;;;;;;21.82;57.89;102451.56;5024971;28;20038;-57
2023/06/24 08:27:46;;;;;;;4.45;3.25;;;;;;;21.82;57.78;102444.25;5023378;28;20037;-56
2023/06/24 08:30:13;;;;;;;3.50;3.17;;;;;;;21.82;58.23;102448.84;5023678;28;20408;-56
2023/06/24 08:32:40;;;;;;;3.08;2.78;;;;;;;21.83;57.72;102442.41;5023381;28;20503;-56
2023/06/24 08:35:06;;;;;;;3.45;2.90;;;;;;;21.82;58.11;102433.41;5024208;28;20365;-57
2023/06/24 08:37:31;;;;;;;3.80;2.65;;;;;;;21.82;58.19;102433.41;5022608;28;20029;-57
2023/06/24 08:39:57;;;;;;;3.47;3.17;;;;;;;21.84;58.02;102427.88;5029544;28;20030;-56
2023/06/24 08:42:22;;;;;;;3.30;2.78;;;;;;;21.83;58.08;102435.13;5021341;28;20502;-56
2023/06/24 08:44:48;;;;;;;3.22;2.75;;;;;;;21.84;58.03;102425.16;5022487;28;20049;-56
2023/06/24 08:47:16;;;;;;;3.25;2.72;;;;;;;21.84;57.64;102427.88;5021486;28;20113;-57
2023/06/24 08:49:50;;;;;;;2.92;2.63;;;;;;;21.85;57.59;102437.72;5022234;28;20041;-57
2023/06/24 08:52:16;;;;;;;2.88;2.58;;;;;;;21.85;57.51;102429.56;5021670;28;20445;-56
2023/06/24 08:54:51;;;;;;;3.72;2.40;;;;;;;21.85;57.39;102430.41;5027119;28;20075;-56
2023/06/24 08:57:16;;;;;;;3.40;2.60;;;;;;;21.85;57.60;102432.28;5022321;28;20037;-57
2023/06/24 08:59:43;;;;;;;3.30;3.00;;;;;;;21.85;57.46;102427.72;5024684;28;20056;-56
2023/06/24 09:02:08;;;;;;;3.08;2.50;;;;;;;21.85;57.65;102425.00;5020773;28;20033;-56
2023/06/24 09:04:34;;;;;;;2.90;2.60;;;;;;;21.86;57.86;102432.16;5023410;28;20052;-56
2023/06/24 09:07:00;;;;;;;3.72;3.13;;;;;;;21.86;57.69;102431.31;5023038;28;20522;-56
2023/06/24 09:09:25;;;;;;;3.47;2.53;;;;;;;21.86;57.56;102426.72;5022929;28;20034;-57
2023/06/24 09:11:55;;;;;;;2.88;2.63;;;;;;;21.88;57.67;102428.47;5023775;28;20064;-56
2023/06/24 09:14:22;;;;;;;2.95;2.58;;;;;;;21.87;57.64;102419.44;5016479;28;20038;-57
2023/06/24 09:16:58;;;;;;;2.92;2.65;;;;;;;21.88;57.43;102421.19;5022328;28;20026;-56
2023/06/24 09:19:28;;;;;;;2.97;2.65;;;;;;;21.87;57.10;102416.72;5023110;28;20485;-56
2023/06/24 09:21:53;;;;;;;3.28;2.70;;;;;;;21.88;57.18;102415.75;5021953;28;20468;-56
2023/06/24 09:24:18;;;;;;;2.70;2.38;;;;;;;21.88;57.24;102406.78;5023430;28;20037;-56
2023/06/24 09:26:44;;;;;;;3.55;2.63;;;;;;;21.88;57.72;102407.63;5023713;28;20080;-56
2023/06/24 09:29:14;;;;;;;2.63;2.42;;;;;;;21.89;57.57;102400.34;5021761;28;20036;-57
2023/06/24 09:31:52;;;;;;;2.47;2.28;;;;;;;21.90;57.46;102404.78;5022611;28;20499;-57
2023/06/24 09:34:19;;;;;;;2.85;2.65;;;;;;;21.89;57.31;102409.31;5022502;28;20498;-56
2023/06/24 09:36:50;;;;;;;3.25;2.55;;;;;;;21.89;57.41;102398.47;5026226;28;20075;-57
2023/06/24 09:39:16;;;;;;;2.90;2.50;;;;;;;21.91;57.31;102401.06;5022958;28;20353;-57
2023/06/24 09:41:42;;;;;;;2.45;2.25;;;;;;;21.91;57.50;102398.34;5023218;28;20032;-56
2023/06/24 09:44:10;;;;;;;3.00;2.47;;;;;;;21.91;57.13;102392.94;5022498;28;20045;-57
2023/06/24 09:46:37;;;;;;;2.45;2.25;;;;;;;21.92;57.39;102391.94;5023076;28;20033;-56
2023/06/24 09:49:03;;;;;;;3.33;2.65;;;;;;;21.91;57.65;102392.94;5020259;28;20057;-57
2023/06/24 09:51:28;;;;;;;2.42;2.22;;;;;;;21.91;57.61;102391.06;5026081;28;20037;-56
2023/06/24 09:53:57;;;;;;;2.80;2.60;;;;;;;21.92;57.14;102381.09;5022547;28;20040;-56
2023/06/24 09:56:23;;;;;;;2.40;2.20;;;;;;;21.91;57.60;102382.94;5022461;28;20112;-56
2023/06/24 09:58:49;;;;;;;2.90;2.60;;;;;;;21.92;57.44;102384.66;5021325;28;20029;-56
2023/06/24 10:01:16;;;;;;;3.15;2.55;;;;;;;21.92;57.29;102387.38;5021821;28;20026;-57
2023/06/24 10:03:42;;;;;;;2.90;2.60;;;;;;;21.93;57.70;102390.94;5022681;28;20460;-57
2023/06/24 10:06:08;;;;;;;2.50;2.30;;;;;;;21.93;57.34;102386.38;5017699;28;20053;-56
2023/06/24 10:08:33;;;;;;;2.70;2.35;;;;;;;21.94;57.13;102392.66;5022851;28;20033;-56
2023/06/24 10:11:00;;;;;;;3.63;2.58;;;;;;;21.94;57.26;102387.25;5018334;28;20415;-56
2023/06/24 10:13:26;;;;;;;2.65;2.45;;;;;;;21.95;57.46;102383.53;5021221;28;20136;-56
2023/06/24 10:15:51;;;;;;;2.30;2.10;;;;;;;21.95;57.13;102392.53;5021134;28;20543;-56
2023/06/24 10:18:37;;;;;;;2.53;2.30;;;;;;;21.97;57.76;102385.13;5021417;28;20435;-56
2023/06/24 10:21:04;;;;;;;2.80;2.60;;;;;;;21.96;57.54;102391.53;5020370;28;20044;-56
2023/06/24 10:23:53;;;;;;;2.90;2.55;;;;;;;21.98;57.24;102384.13;5022096;28;20119;-57
2023/06/24 10:26:28;;;;;;;2.72;2.30;;;;;;;21.97;57.44;102384.25;5022073;28;20109;-56
2023/06/24 10:29:05;;;;;;;2.72;2.30;;;;;;;21.98;57.26;102378.69;5020708;28;20041;-56
2023/06/24 10:31:54;;;;;;;2.47;2.10;;;;;;;22.00;57.34;102376.69;5025469;28;20021;-57
2023/06/24 10:34:22;;;;;;;2.40;2.20;;;;;;;21.99;57.63;102382.25;5024633;28;20092;-57
2023/06/24 10:37:08;;;;;;;2.30;2.10;;;;;;;22.00;57.78;102381.28;5021578;28;20033;-57
2023/06/24 10:39:39;;;;;;;3.03;2.53;;;;;;;22.00;57.91;102378.56;5021552;28;20025;-57
2023/06/24 10:42:42;;;;;;;2.88;2.30;;;;;;;22.02;57.89;102371.13;5020601;28;20447;-57
2023/06/24 10:45:19;;;;;;;2.88;2.45;;;;;;;22.02;57.76;102368.44;5021470;28;20033;-56
2023/06/24 10:47:49;;;;;;;2.55;2.35;;;;;;;22.01;57.55;102367.56;5025542;28;20037;-56
2023/06/24 10:50:18;;;;;;;2.50;2.30;;;;;;;22.02;57.80;102368.44;5021094;28;20528;-57
2023/06/24 10:52:45;;;;;;;2.63;2.42;;;;;;;22.01;57.85;102370.28;5024351;28;20277;-56
2023/06/24 10:55:14;;;;;;;2.40;2.20;;;;;;;22.03;57.97;102372.88;5021820;28;20412;-57
2023/06/24 10:57:40;;;;;;;2.72;2.42;;;;;;;22.03;57.89;102364.75;5021806;28;20033;-56
2023/06/24 11:00:06;;;;;;;2.75;2.42;;;;;;;22.04;57.70;102371.84;5019920;28;20038;-56
2023/06/24 11:02:31;;;;;;;2.42;2.22;;;;;;;22.04;57.61;102366.44;5019490;28;20509;-56
2023/06/24 11:04:59;;;;;;;2.72;2.22;;;;;;;22.05;57.57;102365.47;5020564;28;20091;-56
2023/06/24 11:07:26;;;;;;;2.40;2.20;;;;;;;22.06;57.41;102364.44;5017456;28;20124;-56
2023/06/24 11:10:00;;;;;;;2.40;2.20;;;;;;;22.07;58.05;102360.75;5021039;28;20379;-56
2023/06/24 11:12:29;;;;;;;2.42;2.22;;;;;;;22.06;57.64;102354.44;5021639;28;20060;-56
2023/06/24 11:15:00;;;;;;;2.70;1.88;;;;;;;22.06;57.83;102346.31;5020558;28;20507;-57
2023/06/24 11:17:27;;;;;;;2.63;2.20;;;;;;;22.08;57.49;102348.88;5018966;28;20033;-56
2023/06/24 11:19:56;;;;;;;2.40;2.20;;;;;;;22.08;57.97;102346.19;5020273;28;20495;-56
2023/06/24 11:22:22;;;;;;;2.20;2.00;;;;;;;22.09;57.52;102347.91;5018938;28;20087;-56
2023/06/24 11:24:48;;;;;;;2.30;2.10;;;;;;;22.09;57.47;102347.91;5021006;28;20033;-57